createdAt,value
2023-04-18T00:00:09.661Z,881.00
2023-04-18T00:01:09.694Z,857.00
2023-04-18T00:02:09.675Z,857.00
2023-04-18T00:03:09.883Z,875.00
2023-04-18T00:04:09.902Z,869.00
2023-04-18T00:05:09.784Z,880.00
2023-04-18T00:06:09.705Z,870.00
2023-04-18T00:07:09.712Z,852.00
2023-04-18T00:08:09.708Z,858.00
2023-04-18T00:09:09.784Z,863.00
2023-04-18T00:10:09.748Z,860.00
2023-04-18T00:11:09.748Z,866.00
2023-04-18T00:12:09.741Z,872.00
2023-04-18T00:13:09.765Z,858.00
2023-04-18T00:14:09.769Z,871.00
2023-04-18T00:15:09.778Z,871.00
2023-04-18T00:16:09.781Z,867.00
2023-04-18T00:17:09.924Z,870.00
2023-04-18T00:18:09.937Z,867.00
2023-04-18T00:19:09.807Z,862.00
2023-04-18T00:20:09.816Z,875.00
2023-04-18T00:21:09.845Z,873.00
2023-04-18T00:22:09.868Z,870.00
2023-04-18T00:23:11.126Z,879.00
2023-04-18T00:24:09.882Z,874.00
2023-04-18T00:25:09.885Z,882.00
2023-04-18T00:26:09.890Z,867.00
2023-04-18T00:27:09.918Z,863.00
2023-04-18T00:28:09.914Z,859.00
2023-04-18T00:29:09.910Z,873.00
2023-04-18T00:30:09.914Z,877.00
2023-04-18T00:31:09.974Z,861.00
2023-04-18T00:32:09.929Z,882.00
2023-04-18T00:33:09.942Z,869.00
2023-04-18T00:34:09.916Z,865.00
2023-04-18T00:35:09.983Z,869.00
2023-04-18T00:36:10.018Z,861.00
2023-04-18T00:37:10.016Z,872.00
2023-04-18T00:38:10.037Z,863.00
2023-04-18T00:39:10.041Z,880.00
2023-04-18T00:40:09.999Z,856.00
2023-04-18T00:41:10.070Z,876.00
2023-04-18T00:42:10.064Z,870.00
2023-04-18T00:43:10.061Z,877.00
2023-04-18T00:44:10.078Z,870.00
2023-04-18T00:45:10.072Z,872.00
2023-04-18T00:46:10.183Z,878.00
2023-04-18T00:47:10.094Z,880.00
2023-04-18T00:48:10.111Z,874.00
2023-04-18T00:49:10.120Z,864.00
2023-04-18T00:50:10.104Z,876.00
2023-04-18T00:51:10.417Z,878.00
2023-04-18T00:52:10.134Z,884.00
2023-04-18T00:53:10.144Z,870.00
2023-04-18T00:54:10.140Z,871.00
2023-04-18T00:55:10.149Z,860.00
2023-04-18T00:56:10.152Z,872.00
2023-04-18T00:57:10.150Z,874.00
2023-04-18T00:58:10.173Z,879.00
2023-04-18T00:59:10.217Z,875.00
2023-04-18T01:00:10.208Z,872.00
2023-04-18T01:01:10.214Z,864.00
2023-04-18T01:02:10.210Z,859.00
2023-04-18T01:03:10.365Z,867.00
2023-04-18T01:04:10.350Z,860.00
2023-04-18T01:05:10.281Z,876.00
2023-04-18T01:06:10.256Z,868.00
2023-04-18T01:07:10.270Z,870.00
2023-04-18T01:08:10.273Z,882.00
2023-04-18T01:09:10.285Z,874.00
2023-04-18T01:10:10.314Z,887.00
2023-04-18T01:11:10.363Z,863.00
2023-04-18T01:12:10.392Z,877.00
2023-04-18T01:13:10.393Z,863.00
2023-04-18T01:14:10.427Z,884.00
2023-04-18T01:15:10.390Z,870.00
2023-04-18T01:16:10.443Z,863.00
2023-04-18T01:17:10.404Z,875.00
2023-04-18T01:18:10.409Z,871.00
2023-04-18T01:19:10.415Z,878.00
2023-04-18T01:20:10.423Z,874.00
2023-04-18T01:21:10.456Z,872.00
2023-04-18T01:22:10.472Z,884.00
2023-04-18T01:23:10.618Z,883.00
2023-04-18T01:24:10.651Z,865.00
2023-04-18T01:25:10.502Z,865.00
2023-04-18T01:26:10.565Z,872.00
2023-04-18T01:27:10.575Z,860.00
2023-04-18T01:28:10.583Z,857.00
2023-04-18T01:29:10.522Z,874.00
2023-04-18T01:30:10.611Z,885.00
2023-04-18T01:31:10.636Z,877.00
2023-04-18T01:32:10.601Z,883.00
2023-04-18T01:33:10.616Z,873.00
2023-04-18T01:34:10.731Z,868.00
2023-04-18T01:35:10.624Z,876.00
2023-04-18T01:36:10.661Z,882.00
2023-04-18T01:37:10.678Z,881.00
2023-04-18T01:38:10.684Z,873.00
2023-04-18T01:39:10.699Z,887.00
2023-04-18T01:40:10.700Z,866.00
2023-04-18T01:41:10.709Z,888.00
2023-04-18T01:42:10.775Z,862.00
2023-04-18T01:43:10.801Z,859.00
2023-04-18T01:44:10.808Z,872.00
2023-04-18T01:45:10.800Z,869.00
2023-04-18T01:46:10.782Z,857.00
2023-04-18T01:47:10.839Z,869.00
2023-04-18T01:48:10.816Z,868.00
2023-04-18T01:49:10.833Z,870.00
2023-04-18T01:50:10.835Z,877.00
2023-04-18T01:51:10.858Z,883.00
2023-04-18T01:52:10.887Z,879.00
2023-04-18T01:53:10.903Z,882.00
2023-04-18T01:54:10.956Z,879.00
2023-04-18T01:55:10.917Z,874.00
2023-04-18T01:56:10.931Z,865.00
2023-04-18T01:57:10.918Z,873.00
2023-04-18T01:58:10.921Z,890.00
2023-04-18T01:59:10.935Z,871.00
2023-04-18T02:00:10.949Z,875.00
2023-04-18T02:01:11.039Z,880.00
2023-04-18T02:02:11.063Z,875.00
2023-04-18T02:03:11.198Z,880.00
2023-04-18T02:04:11.069Z,869.00
2023-04-18T02:05:11.035Z,869.00
2023-04-18T02:06:11.042Z,871.00
2023-04-18T02:07:11.061Z,869.00
2023-04-18T02:08:11.102Z,869.00
2023-04-18T02:09:11.083Z,888.00
2023-04-18T02:10:11.121Z,878.00
2023-04-18T02:11:11.178Z,867.00
2023-04-18T02:12:11.181Z,869.00
2023-04-18T02:13:11.432Z,873.00
2023-04-18T02:14:11.369Z,874.00
2023-04-18T02:15:11.209Z,876.00
2023-04-18T02:16:11.292Z,868.00
2023-04-18T02:17:11.219Z,868.00
2023-04-18T02:18:11.215Z,878.00
2023-04-18T02:19:11.278Z,873.00
2023-04-18T02:20:11.296Z,868.00
2023-04-18T02:21:11.349Z,876.00
2023-04-18T02:22:11.352Z,867.00
2023-04-18T02:23:11.358Z,881.00
2023-04-18T02:24:11.509Z,877.00
2023-04-18T02:25:11.378Z,853.00
2023-04-18T02:26:11.440Z,872.00
2023-04-18T02:27:11.436Z,864.00
2023-04-18T02:28:11.439Z,869.00
2023-04-18T02:29:11.500Z,870.00
2023-04-18T02:30:11.541Z,877.00
2023-04-18T02:31:11.557Z,876.00
2023-04-18T02:32:11.608Z,867.00
2023-04-18T02:33:11.553Z,874.00
2023-04-18T02:34:11.866Z,867.00
2023-04-18T02:35:11.595Z,864.00
2023-04-18T02:36:11.598Z,874.00
2023-04-18T02:37:11.663Z,866.00
2023-04-18T02:38:11.693Z,873.00
2023-04-18T02:39:11.722Z,861.00
2023-04-18T02:40:11.721Z,864.00
2023-04-18T02:41:11.739Z,866.00
2023-04-18T02:42:11.938Z,869.00
2023-04-18T02:43:11.809Z,871.00
2023-04-18T02:44:12.119Z,864.00
2023-04-18T02:45:11.817Z,866.00
2023-04-18T02:46:11.896Z,870.00
2023-04-18T02:47:12.446Z,866.00
2023-04-18T02:48:11.944Z,870.00
2023-04-18T02:49:11.959Z,870.00
2023-04-18T02:50:11.952Z,878.00
2023-04-18T02:51:11.964Z,868.00
2023-04-18T02:52:12.017Z,875.00
2023-04-18T02:53:12.016Z,872.00
2023-04-18T02:54:12.228Z,876.00
2023-04-18T02:55:12.100Z,877.00
2023-04-18T02:56:12.099Z,867.00
2023-04-18T02:57:12.104Z,877.00
2023-04-18T02:58:12.174Z,872.00
2023-04-18T02:59:12.156Z,861.00
2023-04-18T03:00:12.230Z,874.00
2023-04-18T03:01:12.250Z,872.00
2023-04-18T03:02:12.290Z,865.00
2023-04-18T03:03:12.336Z,872.00
2023-04-18T03:04:12.540Z,873.00
2023-04-18T03:05:12.477Z,876.00
2023-04-18T03:06:12.367Z,872.00
2023-04-18T03:07:12.381Z,877.00
2023-04-18T03:08:12.434Z,866.00
2023-04-18T03:09:12.441Z,878.00
2023-04-18T03:10:12.439Z,866.00
2023-04-18T03:11:12.504Z,871.00
2023-04-18T03:12:12.519Z,865.00
2023-04-18T03:13:12.585Z,870.00
2023-04-18T03:14:12.787Z,870.00
2023-04-18T03:15:12.580Z,855.00
2023-04-18T03:16:12.725Z,867.00
2023-04-18T03:17:12.650Z,854.00
2023-04-18T03:18:12.721Z,863.00
2023-04-18T03:19:12.715Z,866.00
2023-04-18T03:20:12.708Z,863.00
2023-04-18T03:21:12.779Z,859.00
2023-04-18T03:22:12.780Z,865.00
2023-04-18T03:23:12.843Z,862.00
2023-04-18T03:24:12.824Z,870.00
2023-04-18T03:25:12.847Z,864.00
2023-04-18T03:26:12.864Z,862.00
2023-04-18T03:27:12.921Z,871.00
2023-04-18T03:28:12.953Z,869.00
2023-04-18T03:29:12.984Z,867.00
2023-04-18T03:30:12.986Z,853.00
2023-04-18T03:31:13.029Z,867.00
2023-04-18T03:32:13.079Z,864.00
2023-04-18T03:33:13.062Z,868.00
2023-04-18T03:34:13.344Z,860.00
2023-04-18T03:35:13.131Z,855.00
2023-04-18T03:36:13.183Z,864.00
2023-04-18T03:37:13.146Z,855.00
2023-04-18T03:38:13.249Z,864.00
2023-04-18T03:39:13.183Z,863.00
2023-04-18T03:40:13.215Z,858.00
2023-04-18T03:41:13.221Z,864.00
2023-04-18T03:42:13.278Z,868.00
2023-04-18T03:43:13.339Z,857.00
2023-04-18T03:44:13.516Z,861.00
2023-04-18T03:45:13.363Z,856.00
2023-04-18T03:46:13.476Z,860.00
2023-04-18T03:47:13.411Z,863.00
2023-04-18T03:48:13.414Z,858.00
2023-04-18T03:49:13.485Z,866.00
2023-04-18T03:50:13.489Z,849.00
2023-04-18T03:51:13.504Z,857.00
2023-04-18T03:52:13.500Z,861.00
2023-04-18T03:53:13.554Z,860.00
2023-04-18T03:54:13.809Z,857.00
2023-04-18T03:55:13.636Z,858.00
2023-04-18T03:56:13.703Z,857.00
2023-04-18T03:57:13.692Z,858.00
2023-04-18T03:58:13.748Z,853.00
2023-04-18T03:59:13.760Z,861.00
2023-04-18T04:00:13.764Z,842.00
2023-04-18T04:01:13.817Z,857.00
2023-04-18T04:02:13.899Z,853.00
2023-04-18T04:03:13.975Z,864.00
2023-04-18T04:04:14.262Z,854.00
2023-04-18T04:05:13.898Z,845.00
2023-04-18T04:06:13.965Z,847.00
2023-04-18T04:07:13.982Z,849.00
2023-04-18T04:08:14.015Z,841.00
2023-04-18T04:09:14.076Z,812.00
2023-04-18T04:10:14.091Z,782.00
2023-04-18T04:11:14.137Z,772.00
2023-04-18T04:12:14.150Z,765.00
2023-04-18T04:13:14.205Z,754.00
2023-04-18T04:14:14.353Z,736.00
2023-04-18T04:15:14.293Z,713.00
2023-04-18T04:16:14.369Z,692.00
2023-04-18T04:17:14.398Z,675.00
2023-04-18T04:18:14.448Z,671.00
2023-04-18T04:19:14.453Z,653.00
2023-04-18T04:20:14.504Z,639.00
2023-04-18T04:21:14.574Z,645.00
2023-04-18T04:22:14.638Z,633.00
2023-04-18T04:23:14.634Z,628.00
2023-04-18T04:24:14.909Z,622.00
2023-04-18T04:25:14.762Z,618.00
2023-04-18T04:26:14.813Z,608.00
2023-04-18T04:27:14.867Z,597.00
2023-04-18T04:28:14.923Z,593.00
2023-04-18T04:29:14.929Z,587.00
2023-04-18T04:30:14.993Z,585.00
2023-04-18T04:31:15.046Z,581.00
2023-04-18T04:32:15.076Z,571.00
2023-04-18T04:33:15.102Z,568.00
2023-04-18T04:34:15.326Z,567.00
2023-04-18T04:35:15.181Z,570.00
2023-04-18T04:36:17.290Z,573.00
2023-04-18T04:37:15.239Z,574.00
2023-04-18T04:38:15.367Z,567.00
2023-04-18T04:39:15.220Z,565.00
2023-04-18T04:40:15.214Z,558.00
2023-04-18T04:41:15.177Z,557.00
2023-04-18T04:42:15.171Z,555.00
2023-04-18T04:43:15.175Z,554.00
2023-04-18T04:44:15.518Z,552.00
2023-04-18T04:45:15.216Z,547.00
2023-04-18T04:46:15.171Z,548.00
2023-04-18T04:47:15.176Z,550.00
2023-04-18T04:48:15.116Z,550.00
2023-04-18T04:49:15.109Z,549.00
2023-04-18T04:50:15.132Z,550.00
2023-04-18T04:51:15.132Z,548.00
2023-04-18T04:52:15.138Z,551.00
2023-04-18T04:53:15.110Z,550.00
2023-04-18T04:54:15.247Z,550.00
2023-04-18T04:55:15.108Z,556.00
2023-04-18T04:56:15.104Z,560.00
2023-04-18T04:57:15.066Z,562.00
2023-04-18T04:58:15.075Z,564.00
2023-04-18T04:59:15.086Z,562.00
2023-04-18T05:00:15.032Z,563.00
2023-04-18T05:01:15.134Z,561.00
2023-04-18T05:02:15.197Z,550.00
2023-04-18T05:03:15.155Z,538.00
2023-04-18T05:04:15.501Z,526.00
2023-04-18T05:05:15.037Z,513.00
2023-04-18T05:06:15.022Z,507.00
2023-04-18T05:07:15.035Z,500.00
2023-04-18T05:08:15.201Z,501.00
2023-04-18T05:09:15.007Z,509.00
2023-04-18T05:10:15.003Z,518.00
2023-04-18T05:11:15.022Z,524.00
2023-04-18T05:12:14.976Z,518.00
2023-04-18T05:13:14.978Z,509.00
2023-04-18T05:14:15.220Z,501.00
2023-04-18T05:15:14.990Z,500.00
2023-04-18T05:16:14.961Z,500.00
2023-04-18T05:17:14.966Z,501.00
2023-04-18T05:18:15.014Z,500.00
2023-04-18T05:19:14.959Z,502.00
2023-04-18T05:20:15.099Z,500.00
2023-04-18T05:21:15.050Z,502.00
2023-04-18T05:22:15.133Z,500.00
2023-04-18T05:23:15.223Z,508.00
2023-04-18T05:24:15.471Z,512.00
2023-04-18T05:25:15.371Z,516.00
2023-04-18T05:26:15.414Z,516.00
2023-04-18T05:27:17.201Z,524.00
2023-04-18T05:28:15.460Z,533.00
2023-04-18T05:29:15.429Z,525.00
2023-04-18T05:30:15.439Z,506.00
2023-04-18T05:31:15.457Z,500.00
2023-04-18T05:32:15.429Z,504.00
2023-04-18T05:33:15.430Z,500.00
2023-04-18T05:34:15.722Z,503.00
2023-04-18T05:35:15.433Z,500.00
2023-04-18T05:36:15.384Z,505.00
2023-04-18T05:37:15.368Z,503.00
2023-04-18T05:38:15.400Z,509.00
2023-04-18T05:39:15.430Z,505.00
2023-04-18T05:40:15.363Z,503.00
2023-04-18T05:41:15.382Z,519.00
2023-04-18T05:42:15.375Z,519.00
2023-04-18T05:43:15.331Z,526.00
2023-04-18T05:44:15.531Z,533.00
2023-04-18T05:45:15.391Z,540.00
2023-04-18T05:46:15.366Z,539.00
2023-04-18T05:47:15.306Z,551.00
2023-04-18T05:48:15.400Z,565.00
2023-04-18T05:49:15.351Z,577.00
2023-04-18T05:50:15.327Z,585.00
2023-04-18T05:51:15.542Z,591.00
2023-04-18T05:52:15.258Z,598.00
2023-04-18T05:53:15.353Z,613.00
2023-04-18T05:54:15.438Z,618.00
2023-04-18T05:55:15.636Z,625.00
2023-04-18T05:56:15.271Z,632.00
2023-04-18T05:57:16.088Z,648.00
2023-04-18T05:58:15.280Z,647.00
2023-04-18T05:59:15.243Z,652.00
2023-04-18T06:00:15.286Z,656.00
2023-04-18T06:01:15.348Z,661.00
2023-04-18T06:02:15.306Z,688.00
2023-04-18T06:03:15.349Z,690.00
2023-04-18T06:04:15.598Z,680.00
2023-04-18T06:05:15.574Z,679.00
2023-04-18T06:06:15.203Z,686.00
2023-04-18T06:07:15.204Z,694.00
2023-04-18T06:08:15.205Z,688.00
2023-04-18T06:09:15.233Z,698.00
2023-04-18T06:10:15.160Z,702.00
2023-04-18T06:11:15.181Z,705.00
2023-04-18T06:12:15.182Z,699.00
2023-04-18T06:13:15.146Z,717.00
2023-04-18T06:14:15.442Z,717.00
2023-04-18T06:15:15.321Z,719.00
2023-04-18T06:16:15.264Z,736.00
2023-04-18T06:17:15.211Z,729.00
2023-04-18T06:18:15.178Z,725.00
2023-04-18T06:19:15.217Z,718.00
2023-04-18T06:20:15.309Z,725.00
2023-04-18T06:21:15.348Z,724.00
2023-04-18T06:22:15.850Z,725.00
2023-04-18T06:23:15.314Z,728.00
2023-04-18T06:24:15.633Z,730.00
2023-04-18T06:25:15.268Z,737.00
2023-04-18T06:26:15.289Z,743.00
2023-04-18T06:27:27.926Z,741.00
2023-04-18T06:28:16.493Z,742.00
2023-04-18T06:29:15.240Z,743.00
2023-04-18T06:30:15.257Z,743.00
2023-04-18T06:31:15.569Z,743.00
2023-04-18T06:32:15.210Z,745.00
2023-04-18T06:33:15.538Z,733.00
2023-04-18T06:34:15.597Z,744.00
2023-04-18T06:35:15.600Z,740.00
2023-04-18T06:36:15.250Z,734.00
2023-04-18T06:37:15.202Z,730.00
2023-04-18T06:38:15.164Z,678.00
2023-04-18T06:39:15.155Z,655.00
2023-04-18T06:40:15.581Z,705.00
2023-04-18T06:41:15.168Z,730.00
2023-04-18T06:42:15.146Z,721.00
2023-04-18T06:43:15.147Z,746.00
2023-04-18T06:44:15.346Z,726.00
2023-04-18T06:45:15.095Z,718.00
2023-04-18T06:46:18.137Z,743.00
2023-04-18T06:47:17.057Z,729.00
2023-04-18T06:48:15.124Z,730.00
2023-04-18T06:49:15.089Z,733.00
2023-04-18T06:50:15.118Z,733.00
2023-04-18T06:51:15.092Z,742.00
2023-04-18T06:52:15.354Z,756.00
2023-04-18T06:53:15.108Z,769.00
2023-04-18T06:54:15.254Z,746.00
2023-04-18T06:55:15.056Z,783.00
2023-04-18T06:56:15.075Z,776.00
2023-04-18T06:57:15.037Z,797.00
2023-04-18T06:58:15.045Z,802.00
2023-04-18T06:59:15.265Z,781.00
2023-04-18T07:00:15.090Z,805.00
2023-04-18T07:01:15.124Z,818.00
2023-04-18T07:02:15.181Z,824.00
2023-04-18T07:03:15.287Z,830.00
2023-04-18T07:04:15.639Z,841.00
2023-04-18T07:05:15.249Z,858.00
2023-04-18T07:06:15.281Z,844.00
2023-04-18T07:07:15.365Z,863.00
2023-04-18T07:08:15.420Z,868.00
2023-04-18T07:09:15.370Z,866.00
2023-04-18T07:10:15.368Z,879.00
2023-04-18T07:11:15.484Z,888.00
2023-04-18T07:12:15.456Z,887.00
2023-04-18T07:13:15.405Z,900.00
2023-04-18T07:14:15.618Z,909.00
2023-04-18T07:15:15.461Z,912.00
2023-04-18T07:16:15.727Z,920.00
2023-04-18T07:17:15.526Z,924.00
2023-04-18T07:18:23.267Z,936.00
2023-04-18T07:19:16.515Z,937.00
2023-04-18T07:20:15.498Z,938.00
2023-04-18T07:21:15.473Z,942.00
2023-04-18T07:22:15.527Z,942.00
2023-04-18T07:23:15.524Z,940.00
2023-04-18T07:24:15.646Z,956.00
2023-04-18T07:25:15.453Z,960.00
2023-04-18T07:26:15.472Z,949.00
2023-04-18T07:27:15.418Z,971.00
2023-04-18T07:28:15.476Z,964.00
2023-04-18T07:29:15.500Z,974.00
2023-04-18T07:30:15.576Z,980.00
2023-04-18T07:31:16.134Z,992.00
2023-04-18T07:32:15.563Z,1000.00
2023-04-18T07:33:15.535Z,920.00
2023-04-18T07:34:15.737Z,853.00
2023-04-18T07:35:15.571Z,881.00
2023-04-18T07:36:15.976Z,868.00
2023-04-18T07:37:15.405Z,887.00
2023-04-18T07:38:15.347Z,902.00
2023-04-18T07:39:15.380Z,869.00
2023-04-18T07:40:15.368Z,846.00
2023-04-18T07:41:15.377Z,879.00
2023-04-18T07:42:15.439Z,854.00
2023-04-18T07:43:15.352Z,868.00
2023-04-18T07:44:15.549Z,859.00
2023-04-18T07:45:15.396Z,846.00
2023-04-18T07:46:15.555Z,841.00
2023-04-18T07:47:15.409Z,842.00
2023-04-18T07:48:15.475Z,831.00
2023-04-18T07:49:15.687Z,851.00
2023-04-18T07:50:15.540Z,838.00
2023-04-18T07:51:15.562Z,843.00
2023-04-18T07:52:15.774Z,837.00
2023-04-18T07:53:15.824Z,847.00
2023-04-18T07:54:15.663Z,881.00
2023-04-18T07:55:16.406Z,874.00
2023-04-18T07:56:16.093Z,886.00
2023-04-18T07:57:15.684Z,898.00
2023-04-18T07:58:15.757Z,903.00
2023-04-18T07:59:16.086Z,904.00
2023-04-18T08:00:15.821Z,917.00
2023-04-18T08:01:15.774Z,919.00
2023-04-18T08:02:16.770Z,921.00
2023-04-18T08:03:16.202Z,910.00
2023-04-18T08:04:16.539Z,927.00
2023-04-18T08:05:16.096Z,933.00
2023-04-18T08:06:16.153Z,932.00
2023-04-18T08:07:16.168Z,915.00
2023-04-18T08:08:16.200Z,929.00
2023-04-18T08:09:16.413Z,933.00
2023-04-18T08:10:16.290Z,921.00
2023-04-18T08:11:16.365Z,915.00
2023-04-18T08:12:16.409Z,912.00
2023-04-18T08:13:16.468Z,911.00
2023-04-18T08:14:16.485Z,907.00
2023-04-18T08:15:16.597Z,867.00
2023-04-18T08:16:17.620Z,877.00
2023-04-18T08:17:16.662Z,858.00
2023-04-18T08:18:16.756Z,865.00
2023-04-18T08:19:17.130Z,845.00
2023-04-18T08:20:16.885Z,822.00
2023-04-18T08:21:16.799Z,806.00
2023-04-18T08:22:16.910Z,820.00
2023-04-18T08:23:16.855Z,833.00
2023-04-18T08:24:16.895Z,825.00
2023-04-18T08:25:17.115Z,810.00
2023-04-18T08:26:16.997Z,821.00
2023-04-18T08:27:17.019Z,841.00
2023-04-18T08:28:17.053Z,773.00
2023-04-18T08:29:17.102Z,775.00
2023-04-18T08:30:17.109Z,829.00
2023-04-18T08:31:17.233Z,827.00
2023-04-18T08:32:17.160Z,802.00
2023-04-18T08:33:17.203Z,828.00
2023-04-18T08:34:17.288Z,817.00
2023-04-18T08:35:17.282Z,827.00
2023-04-18T08:36:17.504Z,812.00
2023-04-18T08:37:17.362Z,816.00
2023-04-18T08:38:17.443Z,782.00
2023-04-18T08:39:17.474Z,787.00
2023-04-18T08:40:17.478Z,775.00
2023-04-18T08:41:17.547Z,741.00
2023-04-18T08:42:17.622Z,663.00
2023-04-18T08:43:17.651Z,620.00
2023-04-18T08:44:17.632Z,593.00
2023-04-18T08:45:17.712Z,534.00
2023-04-18T08:46:17.859Z,510.00
2023-04-18T08:47:17.851Z,535.00
2023-04-18T08:48:18.157Z,545.00
2023-04-18T08:49:17.880Z,514.00
2023-04-18T08:50:17.955Z,505.00
2023-04-18T08:51:18.069Z,509.00
2023-04-18T08:52:18.032Z,516.00
2023-04-18T08:53:18.279Z,534.00
2023-04-18T08:54:18.085Z,535.00
2023-04-18T08:55:18.132Z,524.00
2023-04-18T08:56:18.207Z,529.00
2023-04-18T08:57:18.208Z,524.00
2023-04-18T08:58:18.210Z,531.00
2023-04-18T08:59:18.330Z,541.00
2023-04-18T09:00:19.621Z,545.00
2023-04-18T09:01:18.348Z,545.00
2023-04-18T09:02:18.360Z,540.00
2023-04-18T09:03:18.432Z,541.00
2023-04-18T09:04:18.464Z,548.00
2023-04-18T09:05:18.386Z,570.00
2023-04-18T09:06:18.409Z,563.00
2023-04-18T09:07:18.508Z,569.00
2023-04-18T09:08:19.149Z,571.00
2023-04-18T09:09:18.695Z,586.00
2023-04-18T09:10:18.514Z,569.00
2023-04-18T09:11:18.508Z,555.00
2023-04-18T09:12:18.550Z,458.00
2023-04-18T09:13:18.557Z,400.00
2023-04-18T09:14:18.550Z,400.00
2023-04-18T09:15:18.633Z,443.00
2023-04-18T09:16:18.703Z,432.00
2023-04-18T09:17:18.791Z,431.00
2023-04-18T09:18:18.760Z,519.00
2023-04-18T09:19:19.103Z,572.00
2023-04-18T09:20:18.822Z,594.00
2023-04-18T09:21:18.917Z,611.00
2023-04-18T09:22:19.161Z,611.00
2023-04-18T09:23:19.007Z,634.00
2023-04-18T09:24:19.080Z,645.00
2023-04-18T09:25:19.115Z,652.00
2023-04-18T09:26:19.177Z,664.00
2023-04-18T09:27:19.654Z,684.00
2023-04-18T09:28:19.190Z,720.00
2023-04-18T09:29:19.299Z,768.00
2023-04-18T09:30:19.390Z,726.00
2023-04-18T09:31:19.456Z,815.00
2023-04-18T09:32:19.622Z,851.00
2023-04-18T09:33:19.530Z,822.00
2023-04-18T09:34:19.543Z,834.00
2023-04-18T09:35:19.597Z,912.00
2023-04-18T09:36:19.689Z,979.00
2023-04-18T09:37:19.664Z,1031.00
2023-04-18T09:38:19.671Z,938.00
2023-04-18T09:39:19.762Z,946.00
2023-04-18T09:40:19.844Z,873.00
2023-04-18T09:41:21.484Z,808.00
2023-04-18T09:42:28.913Z,745.00
2023-04-18T09:43:19.837Z,739.00
2023-04-18T09:44:20.279Z,675.00
2023-04-18T09:45:19.892Z,646.00
2023-04-18T09:46:19.883Z,647.00
2023-04-18T09:47:19.823Z,622.00
2023-04-18T09:48:19.835Z,616.00
2023-04-18T09:49:19.893Z,582.00
2023-04-18T09:50:19.839Z,585.00
2023-04-18T09:51:19.917Z,568.00
2023-04-18T09:52:19.817Z,528.00
2023-04-18T09:53:20.950Z,524.00
2023-04-18T09:54:20.169Z,512.00
2023-04-18T09:55:19.809Z,501.00
2023-04-18T09:56:19.860Z,500.00
2023-04-18T09:57:19.731Z,516.00
2023-04-18T09:58:19.799Z,499.00
2023-04-18T09:59:21.234Z,509.00
2023-04-18T10:00:19.800Z,500.00
2023-04-18T10:01:19.769Z,498.00
2023-04-18T10:02:19.802Z,500.00
2023-04-18T10:03:19.860Z,501.00
2023-04-18T10:04:19.910Z,499.00
2023-04-18T10:05:21.192Z,505.00
2023-04-18T10:06:19.727Z,499.00
2023-04-18T10:07:19.732Z,507.00
2023-04-18T10:08:19.676Z,508.00
2023-04-18T10:09:19.762Z,502.00
2023-04-18T10:10:19.726Z,501.00
2023-04-18T10:11:20.300Z,514.00
2023-04-18T10:12:19.795Z,548.00
2023-04-18T10:13:19.735Z,547.00
2023-04-18T10:14:19.732Z,522.00
2023-04-18T10:15:20.171Z,501.00
2023-04-18T10:16:20.203Z,499.00
2023-04-18T10:17:19.652Z,500.00
2023-04-18T10:18:20.372Z,498.00
2023-04-18T10:19:19.693Z,499.00
2023-04-18T10:20:19.690Z,501.00
2023-04-18T10:21:19.669Z,508.00
2023-04-18T10:22:19.691Z,502.00
2023-04-18T10:23:19.651Z,507.00
2023-04-18T10:24:19.660Z,500.00
2023-04-18T10:25:19.878Z,501.00
2023-04-18T10:26:19.676Z,498.00
2023-04-18T10:27:20.449Z,504.00
2023-04-18T10:28:19.768Z,500.00
2023-04-18T10:29:19.690Z,501.00
2023-04-18T10:30:19.730Z,504.00
2023-04-18T10:31:19.748Z,504.00
2023-04-18T10:32:20.149Z,512.00
2023-04-18T10:33:29.431Z,513.00
2023-04-18T10:34:20.957Z,509.00
2023-04-18T10:35:19.724Z,508.00
2023-04-18T10:36:19.687Z,496.00
2023-04-18T10:37:19.715Z,491.00
2023-04-18T10:38:20.170Z,489.00
2023-04-18T10:39:19.824Z,500.00
2023-04-18T10:40:19.710Z,500.00
2023-04-18T10:41:19.701Z,505.00
2023-04-18T10:42:19.700Z,508.00
2023-04-18T10:43:19.634Z,500.00
2023-04-18T10:44:19.671Z,502.00
2023-04-18T10:45:19.760Z,502.00
2023-04-18T10:46:31.003Z,519.00
2023-04-18T10:47:20.799Z,511.00
2023-04-18T10:48:19.702Z,511.00
2023-04-18T10:49:19.644Z,504.00
2023-04-18T10:50:19.632Z,522.00
2023-04-18T10:51:19.650Z,504.00
2023-04-18T10:52:19.663Z,503.00
2023-04-18T10:53:19.650Z,501.00
2023-04-18T10:54:19.600Z,506.00
2023-04-18T10:55:19.560Z,503.00
2023-04-18T10:56:19.584Z,498.00
2023-04-18T10:57:19.598Z,508.00
2023-04-18T10:58:19.579Z,511.00
2023-04-18T10:59:19.608Z,515.00
2023-04-18T11:00:19.665Z,500.00
2023-04-18T11:01:19.636Z,531.00
2023-04-18T11:02:19.581Z,502.00
2023-04-18T11:03:19.697Z,518.00
2023-04-18T11:04:20.153Z,510.00
2023-04-18T11:05:19.697Z,503.00
2023-04-18T11:06:19.686Z,500.00
2023-04-18T11:07:19.802Z,500.00
2023-04-18T11:08:19.810Z,500.00
2023-04-18T11:09:19.862Z,511.00
2023-04-18T11:10:19.912Z,524.00
2023-04-18T11:11:19.922Z,502.00
2023-04-18T11:12:19.992Z,515.00
2023-04-18T11:13:20.004Z,530.00
2023-04-18T11:14:20.100Z,526.00
2023-04-18T11:15:20.119Z,534.00
2023-04-18T11:16:20.234Z,552.00
2023-04-18T11:17:20.156Z,562.00
2023-04-18T11:18:20.195Z,552.00
2023-04-18T11:19:20.699Z,562.00
2023-04-18T11:20:20.298Z,553.00
2023-04-18T11:21:20.375Z,548.00
2023-04-18T11:22:20.382Z,520.00
2023-04-18T11:23:20.499Z,525.00
2023-04-18T11:24:20.422Z,539.00
2023-04-18T11:25:20.699Z,539.00
2023-04-18T11:26:20.534Z,525.00
2023-04-18T11:27:20.657Z,525.00
2023-04-18T11:28:20.623Z,523.00
2023-04-18T11:29:20.665Z,502.00
2023-04-18T11:30:20.772Z,508.00
2023-04-18T11:31:20.838Z,500.00
2023-04-18T11:32:20.954Z,503.00
2023-04-18T11:33:20.877Z,516.00
2023-04-18T11:34:20.896Z,500.00
2023-04-18T11:35:21.023Z,515.00
2023-04-18T11:36:21.041Z,526.00
2023-04-18T11:37:21.087Z,533.00
2023-04-18T11:38:23.279Z,548.00
2023-04-18T11:39:21.139Z,543.00
2023-04-18T11:40:21.146Z,533.00
2023-04-18T11:41:21.166Z,537.00
2023-04-18T11:42:21.150Z,547.00
2023-04-18T11:43:21.135Z,556.00
2023-04-18T11:44:21.121Z,533.00
2023-04-18T11:45:21.138Z,527.00
2023-04-18T11:46:21.103Z,500.00
2023-04-18T11:47:21.186Z,505.00
2023-04-18T11:48:21.097Z,518.00
2023-04-18T11:49:21.056Z,514.00
2023-04-18T11:50:21.060Z,505.00
2023-04-18T11:51:21.033Z,527.00
2023-04-18T11:52:21.086Z,509.00
2023-04-18T11:53:21.088Z,504.00
2023-04-18T11:54:21.010Z,502.00
2023-04-18T11:55:21.049Z,525.00
2023-04-18T11:56:21.006Z,539.00
2023-04-18T11:57:21.000Z,523.00
2023-04-18T11:58:21.016Z,528.00
2023-04-18T11:59:21.043Z,517.00
2023-04-18T12:00:21.082Z,515.00
2023-04-18T12:01:21.043Z,500.00
2023-04-18T12:02:21.091Z,512.00
2023-04-18T12:03:21.126Z,534.00
2023-04-18T12:04:21.534Z,542.00
2023-04-18T12:05:21.861Z,541.00
2023-04-18T12:06:21.005Z,540.00
2023-04-18T12:07:20.978Z,551.00
2023-04-18T12:08:21.006Z,557.00
2023-04-18T12:09:20.925Z,570.00
2023-04-18T12:10:20.929Z,553.00
2023-04-18T12:11:20.945Z,551.00
2023-04-18T12:12:20.957Z,548.00
2023-04-18T12:13:20.936Z,550.00
2023-04-18T12:14:20.916Z,562.00
2023-04-18T12:15:20.934Z,550.00
2023-04-18T12:16:20.952Z,554.00
2023-04-18T12:17:20.918Z,564.00
2023-04-18T12:18:20.890Z,551.00
2023-04-18T12:19:20.929Z,584.00
2023-04-18T12:20:21.035Z,582.00
2023-04-18T12:21:20.861Z,596.00
2023-04-18T12:22:20.911Z,596.00
2023-04-18T12:23:20.980Z,574.00
2023-04-18T12:24:21.315Z,569.00
2023-04-18T12:25:21.576Z,553.00
2023-04-18T12:26:21.124Z,560.00
2023-04-18T12:27:21.153Z,532.00
2023-04-18T12:28:21.215Z,542.00